Time;durP1;ratioP1;P1;durP2;ratioP2;P2;SDS_P1;SDS_P2;PMS_P1;PMS_P2;Temp;Humidity;BMP_temperature;BMP_pressure;BME280_temperature;BME280_humidity;BME280_pressure;Samples;Min_cycle;Max_cycle;Signal;HPM_P1;HPM_P2
2023/01/19 00:02:24;;;;;;;5.17;4.17;;;;;;;;;;5055254;28;20013;-71
2023/01/19 00:04:51;;;;;;;5.00;4.27;;;;;;;;;;5055050;28;20492;-72
2023/01/19 00:07:17;;;;;;;5.30;4.00;;;;;;;;;;5054922;28;20356;-71
2023/01/19 00:09:43;;;;;;;6.07;4.63;;;;;;;;;;5054802;28;20079;-71
2023/01/19 00:12:09;;;;;;;6.67;4.30;;;;;;;;;;5036878;28;20427;-71
2023/01/19 00:14:35;;;;;;;5.30;4.03;;;;;;;;;;5036898;28;20548;-71
2023/01/19 00:17:01;;;;;;;7.37;4.53;;;;;;;;;;5054801;28;20049;-71
2023/01/19 00:19:28;;;;;;;7.13;4.77;;;;;;;;;;5054735;28;20026;-71
2023/01/19 00:21:54;;;;;;;5.60;4.40;;;;;;;;;;5054892;28;20471;-71
2023/01/19 00:24:20;;;;;;;6.00;4.60;;;;;;;;;;5054633;28;20063;-71
2023/01/19 00:26:47;;;;;;;5.47;4.30;;;;;;;;;;5054711;28;20032;-71
2023/01/19 00:29:14;;;;;;;8.23;4.70;;;;;;;;;;5054282;28;20041;-71
2023/01/19 00:31:41;;;;;;;7.70;5.20;;;;;;;;;;5054302;28;20075;-71
2023/01/19 00:34:07;;;;;;;9.33;6.13;;;;;;;;;;5054662;28;20025;-71
2023/01/19 00:36:33;;;;;;;11.23;8.60;;;;;;;;;;5055610;28;20029;-72
2023/01/19 00:39:00;;;;;;;9.50;7.07;;;;;;;;;;5055207;28;20093;-71
2023/01/19 00:44:11;;;;;;;9.03;7.40;;;;;;;;;;5055412;28;20048;-71
2023/01/19 00:46:38;;;;;;;14.30;7.43;;;;;;;;;;5055119;28;20029;-70
2023/01/19 00:49:04;;;;;;;10.90;7.93;;;;;;;;;;5055031;28;20029;-70
2023/01/19 00:51:30;;;;;;;12.80;9.97;;;;;;;;;;5054636;28;20025;-70
2023/01/19 00:54:03;;;;;;;18.13;11.43;;;;;;;;;;5054904;28;20620;-70
2023/01/19 00:56:30;;;;;;;14.63;11.50;;;;;;;;;;5054943;28;20641;-70
2023/01/19 00:58:56;;;;;;;13.30;10.57;;;;;;;;;;5054640;28;20402;-70
2023/01/19 01:01:22;;;;;;;14.90;11.00;;;;;;;;;;5054719;28;20029;-71
2023/01/19 01:03:49;;;;;;;14.77;10.50;;;;;;;;;;5054337;28;20075;-70
2023/01/19 01:06:15;;;;;;;11.90;9.27;;;;;;;;;;5054776;28;20017;-70
2023/01/19 01:08:41;;;;;;;11.23;9.07;;;;;;;;;;5036466;28;20431;-71
2023/01/19 01:11:07;;;;;;;12.07;9.73;;;;;;;;;;5054427;28;20494;-71
2023/01/19 01:13:34;;;;;;;15.00;8.63;;;;;;;;;;5052410;28;20048;-71
2023/01/19 01:16:00;;;;;;;12.40;8.03;;;;;;;;;;5051560;28;20382;-71
2023/01/19 01:18:26;;;;;;;9.67;7.83;;;;;;;;;;5052316;28;20033;-71
2023/01/19 01:20:52;;;;;;;9.10;7.10;;;;;;;;;;5054131;28;20482;-71
2023/01/19 01:23:21;;;;;;;7.20;5.83;;;;;;;;;;5053936;28;20078;-72
2023/01/19 01:25:50;;;;;;;8.50;6.37;;;;;;;;;;5054047;28;20119;-72
2023/01/19 01:28:17;;;;;;;8.63;5.57;;;;;;;;;;5053193;28;20063;-71
2023/01/19 01:30:43;;;;;;;9.70;6.23;;;;;;;;;;5053740;28;20027;-71
2023/01/19 01:33:13;;;;;;;12.80;9.87;;;;;;;;;;5053692;28;20053;-72
2023/01/19 01:35:39;;;;;;;12.63;9.53;;;;;;;;;;5053571;28;20032;-71
2023/01/19 01:38:06;;;;;;;10.17;7.73;;;;;;;;;;5052053;28;20029;-71
2023/01/19 01:40:32;;;;;;;11.70;8.00;;;;;;;;;;5050497;28;20056;-71
2023/01/19 01:42:58;;;;;;;14.07;8.10;;;;;;;;;;5050560;28;20029;-71
2023/01/19 01:45:30;;;;;;;8.03;6.93;;;;;;;;;;5052012;28;20421;-71
2023/01/19 01:48:00;;;;;;;9.65;7.32;;;;;;;;;;5053360;28;20028;-71
2023/01/19 01:50:28;;;;;;;10.30;7.40;;;;;;;;;;5053357;28;20466;-71
2023/01/19 01:53:05;;;;;;;10.23;7.00;;;;;;;;;;5035092;28;20379;-71
2023/01/19 01:55:32;;;;;;;8.23;6.23;;;;;;;;;;5052751;28;20056;-71
2023/01/19 01:58:00;;;;;;;6.93;4.90;;;;;;;;;;5052472;28;20032;-71
2023/01/19 02:00:26;;;;;;;8.50;5.00;;;;;;;;;;5052730;28;20367;-71
2023/01/19 02:02:58;;;;;;;6.00;4.73;;;;;;;;;;5053107;28;20443;-71
2023/01/19 02:05:29;;;;;;;8.37;4.10;;;;;;;;;;5052919;28;20467;-71
2023/01/19 02:13:48;;;;;;;12.30;9.07;;;;;;;;;;5052869;28;20044;-71
2023/01/19 02:16:15;;;;;;;16.83;10.27;;;;;;;;;;5052662;28;20029;-71
2023/01/19 02:18:42;;;;;;;15.37;10.40;;;;;;;;;;5052628;28;20090;-70
2023/01/19 02:21:14;;;;;;;14.73;11.13;;;;;;;;;;5052766;28;20028;-72
2023/01/19 02:23:42;;;;;;;13.88;10.68;;;;;;;;;;5053014;28;20462;-72
2023/01/19 02:26:09;;;;;;;13.83;10.90;;;;;;;;;;5053712;28;20025;-72
2023/01/19 02:28:36;;;;;;;16.33;11.03;;;;;;;;;;5053594;28;20383;-70
2023/01/19 02:31:02;;;;;;;15.07;11.73;;;;;;;;;;5053523;28;20510;-70
2023/01/19 02:33:28;;;;;;;16.47;12.60;;;;;;;;;;5053337;28;20035;-70
2023/01/19 02:35:55;;;;;;;17.60;12.50;;;;;;;;;;5053494;28;20040;-71
2023/01/19 02:38:23;;;;;;;17.73;14.30;;;;;;;;;;5052963;28;20037;-70
2023/01/19 02:40:50;;;;;;;19.10;13.63;;;;;;;;;;5056473;28;20356;-70
2023/01/19 02:43:17;;;;;;;20.10;13.60;;;;;;;;;;5057563;28;20039;-70
2023/01/19 02:45:44;;;;;;;16.73;12.93;;;;;;;;;;5057001;28;20470;-71
2023/01/19 02:48:10;;;;;;;17.13;12.47;;;;;;;;;;5057167;28;20095;-70
2023/01/19 02:50:40;;;;;;;15.43;12.73;;;;;;;;;;5057174;28;20440;-70
2023/01/19 02:53:25;;;;;;;18.60;13.07;;;;;;;;;;5056991;28;20032;-70
2023/01/19 02:55:55;;;;;;;16.63;13.23;;;;;;;;;;5038866;28;20048;-71
2023/01/19 02:58:33;;;;;;;18.07;12.57;;;;;;;;;;5056755;28;20044;-70
2023/01/19 03:01:11;;;;;;;15.60;12.87;;;;;;;;;;5056699;28;20467;-72
2023/01/19 03:04:00;;;;;;;17.57;13.07;;;;;;;;;;5056525;28;20032;-71
2023/01/19 03:06:36;;;;;;;15.03;12.67;;;;;;;;;;5028660;28;20033;-71
2023/01/19 03:09:06;;;;;;;16.90;12.67;;;;;;;;;;5056230;28;20055;-72
2023/01/19 03:11:35;;;;;;;16.50;12.80;;;;;;;;;;5056375;28;20402;-71
2023/01/19 03:14:08;;;;;;;17.13;12.40;;;;;;;;;;5038334;28;20020;-72
2023/01/19 03:16:39;;;;;;;15.73;12.10;;;;;;;;;;5056205;28;20410;-72
2023/01/19 03:19:18;;;;;;;17.80;12.40;;;;;;;;;;5056060;28;20405;-72
2023/01/19 03:21:46;;;;;;;14.87;11.80;;;;;;;;;;5055946;28;20028;-72
2023/01/19 03:24:14;;;;;;;14.73;11.80;;;;;;;;;;5055868;28;20037;-71
2023/01/19 03:26:47;;;;;;;14.13;11.33;;;;;;;;;;5037816;28;20378;-71
2023/01/19 03:29:14;;;;;;;13.43;10.32;;;;;;;;;;5055375;28;20415;-71
2023/01/19 03:31:41;;;;;;;12.00;9.30;;;;;;;;;;5055671;28;20029;-71
2023/01/19 03:34:10;;;;;;;13.73;8.47;;;;;;;;;;5055530;28;20375;-71
2023/01/19 03:36:40;;;;;;;11.80;6.93;;;;;;;;;;5038281;28;20425;-71
2023/01/19 03:39:07;;;;;;;7.67;5.67;;;;;;;;;;5055431;28;20040;-71
2023/01/19 03:41:33;;;;;;;6.37;5.27;;;;;;;;;;5055853;28;20025;-71
2023/01/19 03:44:00;;;;;;;6.77;5.27;;;;;;;;;;5055631;28;20029;-71
2023/01/19 03:46:27;;;;;;;7.57;5.87;;;;;;;;;;5055849;28;20021;-71
2023/01/19 03:48:53;;;;;;;8.40;6.10;;;;;;;;;;5055535;28;20482;-71
2023/01/19 03:51:21;;;;;;;7.80;5.97;;;;;;;;;;5054764;28;20021;-71
2023/01/19 03:53:48;;;;;;;8.13;6.17;;;;;;;;;;5054994;28;20062;-71
2023/01/19 03:56:19;;;;;;;8.00;5.97;;;;;;;;;;5055233;28;20021;-71
2023/01/19 03:58:45;;;;;;;10.77;5.57;;;;;;;;;;5054843;28;20499;-71
2023/01/19 04:01:12;;;;;;;10.37;5.53;;;;;;;;;;5036921;28;20426;-71
2023/01/19 04:03:38;;;;;;;6.73;5.57;;;;;;;;;;5054782;28;20394;-71
2023/01/19 04:06:04;;;;;;;6.07;5.37;;;;;;;;;;5054870;28;20029;-71
2023/01/19 04:08:31;;;;;;;6.60;4.73;;;;;;;;;;5055020;28;20471;-71
2023/01/19 04:10:57;;;;;;;6.17;4.63;;;;;;;;;;5055335;28;20372;-72
2023/01/19 04:13:25;;;;;;;6.17;4.43;;;;;;;;;;5055599;28;20422;-72
2023/01/19 04:15:52;;;;;;;5.50;4.60;;;;;;;;;;5055792;28;20116;-70
2023/01/19 04:18:21;;;;;;;5.20;4.60;;;;;;;;;;5055716;28;20033;-70
2023/01/19 04:20:48;;;;;;;6.77;4.47;;;;;;;;;;5037708;28;20082;-70
2023/01/19 04:23:14;;;;;;;5.80;4.33;;;;;;;;;;5055561;28;20383;-70
2023/01/19 04:25:40;;;;;;;5.77;4.00;;;;;;;;;;5055528;28;20494;-71
2023/01/19 04:28:07;;;;;;;6.90;4.00;;;;;;;;;;5055222;28;20507;-70
2023/01/19 04:30:33;;;;;;;3.63;3.03;;;;;;;;;;5055309;28;20348;-70
2023/01/19 04:32:59;;;;;;;3.87;2.70;;;;;;;;;;5055316;28;20020;-70
2023/01/19 04:35:28;;;;;;;3.93;2.63;;;;;;;;;;5037398;28;20033;-71
2023/01/19 04:37:57;;;;;;;3.47;2.73;;;;;;;;;;5055135;28;20451;-71
2023/01/19 04:40:23;;;;;;;4.20;3.27;;;;;;;;;;5036839;28;20478;-70
2023/01/19 04:42:50;;;;;;;4.00;3.03;;;;;;;;;;5036945;28;20044;-71
2023/01/19 04:45:16;;;;;;;5.13;3.60;;;;;;;;;;5054839;28;20049;-70
2023/01/19 04:47:42;;;;;;;6.80;3.73;;;;;;;;;;5054915;28;20051;-71
2023/01/19 04:50:10;;;;;;;4.83;3.40;;;;;;;;;;5054709;28;20033;-71
2023/01/19 04:52:36;;;;;;;4.30;3.33;;;;;;;;;;5054714;28;20025;-72
2023/01/19 04:55:06;;;;;;;3.73;3.30;;;;;;;;;;5054399;28;20021;-72
2023/01/19 04:57:32;;;;;;;6.17;3.07;;;;;;;;;;5054346;28;20371;-73
2023/01/19 04:59:59;;;;;;;5.03;3.30;;;;;;;;;;5054339;28;20032;-72
2023/01/19 05:02:29;;;;;;;5.77;3.33;;;;;;;;;;5052853;28;20433;-71
2023/01/19 05:04:58;;;;;;;7.87;4.73;;;;;;;;;;5053933;28;20108;-73
2023/01/19 05:07:27;;;;;;;6.97;4.30;;;;;;;;;;5054100;28;20099;-71
2023/01/19 05:09:59;;;;;;;5.60;3.23;;;;;;;;;;5054030;28;20051;-71
2023/01/19 05:12:26;;;;;;;4.00;3.05;;;;;;;;;;5054032;28;20094;-72
2023/01/19 05:14:52;;;;;;;4.90;3.17;;;;;;;;;;5036002;28;20414;-71
2023/01/19 05:17:19;;;;;;;4.57;3.37;;;;;;;;;;5035963;28;20075;-71
2023/01/19 05:19:45;;;;;;;4.13;2.77;;;;;;;;;;5053509;28;20437;-72
2023/01/19 05:22:11;;;;;;;4.10;2.63;;;;;;;;;;5053624;28;20414;-71
2023/01/19 05:24:37;;;;;;;3.80;2.60;;;;;;;;;;5053899;28;20474;-71
2023/01/19 05:27:03;;;;;;;3.23;2.40;;;;;;;;;;5053372;28;20062;-71
2023/01/19 05:29:29;;;;;;;3.63;2.30;;;;;;;;;;5035271;28;20380;-71
2023/01/19 05:31:56;;;;;;;5.10;2.50;;;;;;;;;;5053629;28;20451;-71
2023/01/19 05:34:22;;;;;;;3.27;2.47;;;;;;;;;;5053487;28;20107;-71
2023/01/19 05:36:49;;;;;;;4.97;2.20;;;;;;;;;;5053357;28;20029;-70
2023/01/19 05:39:15;;;;;;;7.30;3.20;;;;;;;;;;5053317;28;20048;-71
2023/01/19 05:41:42;;;;;;;4.80;3.27;;;;;;;;;;5053263;28;20096;-71
2023/01/19 05:44:09;;;;;;;3.00;2.20;;;;;;;;;;5053378;28;20025;-71
2023/01/19 05:46:35;;;;;;;1.30;1.20;;;;;;;;;;5053268;28;20066;-71
2023/01/19 05:49:03;;;;;;;0.60;0.50;;;;;;;;;;5053447;28;20032;-71
2023/01/19 05:51:33;;;;;;;0.83;0.43;;;;;;;;;;5052848;28;20111;-71
2023/01/19 05:54:00;;;;;;;0.17;0.17;;;;;;;;;;5053123;28;20458;-71
2023/01/19 05:56:27;;;;;;;0.60;0.13;;;;;;;;;;5053225;28;20025;-71
2023/01/19 05:58:53;;;;;;;0.30;0.20;;;;;;;;;;5052970;28;20425;-71
2023/01/19 06:01:19;;;;;;;0.13;0.10;;;;;;;;;;5053461;28;20056;-71
2023/01/19 06:03:46;;;;;;;0.10;0.10;;;;;;;;;;5053741;28;20372;-72
2023/01/19 06:06:13;;;;;;;0.83;0.13;;;;;;;;;;5053843;28;20036;-70
2023/01/19 06:08:40;;;;;;;0.37;0.10;;;;;;;;;;5053618;28;20434;-70
2023/01/19 06:11:06;;;;;;;0.37;0.30;;;;;;;;;;5053708;28;20379;-70
2023/01/19 06:13:36;;;;;;;1.50;0.30;;;;;;;;;;5053461;28;20058;-70
2023/01/19 06:16:02;;;;;;;0.40;0.10;;;;;;;;;;5053610;28;20033;-70
2023/01/19 06:18:32;;;;;;;0.10;0.10;;;;;;;;;;5053422;28;20483;-70
2023/01/19 06:24:21;;;;;;;1.03;0.20;;;;;;;;;;4991497;28;20118;-70
2023/01/19 06:26:48;;;;;;;0.93;0.20;;;;;;;;;;5031889;28;20095;-70
2023/01/19 06:29:14;;;;;;;0.20;0.10;;;;;;;;;;5053081;28;20084;-70
2023/01/19 06:31:41;;;;;;;0.30;0.10;;;;;;;;;;5053403;28;20352;-70
2023/01/19 06:34:08;;;;;;;0.20;0.10;;;;;;;;;;5053293;28;20025;-70
2023/01/19 06:37:02;;;;;;;0.30;0.17;;;;;;;;;;5053288;28;20025;-70
2023/01/19 06:39:30;;;;;;;0.35;0.15;;;;;;;;;;5051991;28;20127;-72
2023/01/19 06:41:56;;;;;;;0.43;0.20;;;;;;;;;;5035276;28;20090;-71
2023/01/19 06:44:46;;;;;;;0.30;0.20;;;;;;;;;;5052865;28;20426;-71
2023/01/19 06:47:16;;;;;;;1.13;0.20;;;;;;;;;;5052542;28;20021;-71
2023/01/19 06:49:48;;;;;;;0.30;0.20;;;;;;;;;;5034881;28;20363;-72
2023/01/19 06:52:20;;;;;;;2.25;0.10;;;;;;;;;;5052681;28;20387;-72
2023/01/19 06:58:07;;;;;;;0.33;0.23;;;;;;;;;;4991075;28;20039;-71
2023/01/19 07:03:20;;;;;;;0.13;0.10;;;;;;;;;;5007085;28;20051;-71
2023/01/19 07:05:48;;;;;;;0.93;0.37;;;;;;;;;;5052706;28;20048;-71
2023/01/19 07:08:14;;;;;;;0.13;0.10;;;;;;;;;;5052372;28;20031;-71
2023/01/19 07:10:41;;;;;;;0.33;0.20;;;;;;;;;;5052378;28;20437;-71
2023/01/19 07:13:07;;;;;;;1.37;0.30;;;;;;;;;;5034754;28;20465;-71
2023/01/19 07:15:33;;;;;;;1.60;0.40;;;;;;;;;;5052493;28;20387;-72
2023/01/19 07:18:02;;;;;;;0.60;0.30;;;;;;;;;;5052278;28;20586;-71
2023/01/19 07:20:28;;;;;;;0.60;0.40;;;;;;;;;;5061570;28;20389;-71
2023/01/19 07:22:55;;;;;;;0.80;0.40;;;;;;;;;;5092266;28;20434;-71
2023/01/19 07:25:22;;;;;;;2.63;0.50;;;;;;;;;;5074718;28;20381;-71
2023/01/19 07:27:48;;;;;;;1.10;0.50;;;;;;;;;;5096114;28;20440;-72
2023/01/19 07:30:17;;;;;;;0.60;0.43;;;;;;;;;;5096051;28;20039;-72
2023/01/19 07:32:43;;;;;;;0.80;0.60;;;;;;;;;;5077784;28;20030;-72
2023/01/19 07:35:09;;;;;;;4.07;1.00;;;;;;;;;;5095648;28;20465;-72
2023/01/19 07:37:36;;;;;;;1.07;0.67;;;;;;;;;;5095531;28;20032;-72
2023/01/19 07:40:03;;;;;;;2.50;0.90;;;;;;;;;;5096033;28;20024;-73
2023/01/19 07:42:29;;;;;;;2.87;1.10;;;;;;;;;;5095915;28;20077;-73
2023/01/19 07:44:55;;;;;;;3.97;2.00;;;;;;;;;;5095810;28;20032;-72
2023/01/19 07:47:21;;;;;;;7.53;2.97;;;;;;;;;;5095509;28;20055;-72
2023/01/19 07:49:47;;;;;;;2.87;1.60;;;;;;;;;;5096030;28;20024;-72
2023/01/19 07:52:13;;;;;;;2.00;1.30;;;;;;;;;;5096377;28;20378;-73
2023/01/19 07:54:40;;;;;;;2.67;1.40;;;;;;;;;;5096295;28;20028;-72
2023/01/19 07:57:06;;;;;;;2.10;1.23;;;;;;;;;;5096022;28;20134;-71
2023/01/19 07:59:32;;;;;;;2.67;1.00;;;;;;;;;;5096191;28;20036;-70
2023/01/19 08:02:12;;;;;;;;;;;;;;;;;;;;;
2023/01/19 08:04:42;;;;;;;1.50;1.00;;;;;;;;;;5091900;28;20032;-70
2023/01/19 08:07:20;;;;;;;2.87;1.00;;;;;;;;;;5077879;28;20405;-71
2023/01/19 08:09:50;;;;;;;5.67;0.93;;;;;;;;;;5077929;28;20436;-72
2023/01/19 08:12:17;;;;;;;2.37;1.30;;;;;;;;;;5096001;28;20098;-70
2023/01/19 08:14:43;;;;;;;1.57;1.00;;;;;;;;;;5077713;28;20082;-71
2023/01/19 08:17:11;;;;;;;1.80;1.23;;;;;;;;;;5095571;28;20028;-71
2023/01/19 08:19:47;;;;;;;2.70;1.37;;;;;;;;;;5095691;28;20390;-70
2023/01/19 08:22:19;;;;;;;3.57;1.40;;;;;;;;;;5077458;28;20024;-71
2023/01/19 08:24:51;;;;;;;1.98;1.13;;;;;;;;;;5094902;28;20133;-71
2023/01/19 08:27:38;;;;;;;1.58;0.93;;;;;;;;;;5078587;28;20036;-71
2023/01/19 08:30:07;;;;;;;1.83;1.30;;;;;;;;;;5059767;28;20048;-72
2023/01/19 08:33:02;;;;;;;3.13;1.70;;;;;;;;;;5056890;28;20024;-72
2023/01/19 08:35:36;;;;;;;4.03;2.03;;;;;;;;;;5056543;28;20024;-71
2023/01/19 08:38:02;;;;;;;3.23;2.07;;;;;;;;;;5056304;28;20036;-72
2023/01/19 08:40:33;;;;;;;3.73;2.30;;;;;;;;;;5074560;28;20386;-72
2023/01/19 08:43:05;;;;;;;3.80;2.40;;;;;;;;;;5074623;28;20390;-72
2023/01/19 08:45:31;;;;;;;4.50;3.03;;;;;;;;;;5074513;28;20025;-72
2023/01/19 08:47:58;;;;;;;6.23;3.23;;;;;;;;;;5074417;28;20027;-71
2023/01/19 08:50:25;;;;;;;5.33;2.83;;;;;;;;;;5074337;28;20385;-72
2023/01/19 08:52:51;;;;;;;3.37;2.40;;;;;;;;;;5074276;28;20425;-72
2023/01/19 08:55:17;;;;;;;5.77;2.27;;;;;;;;;;5074164;28;20060;-72
2023/01/19 08:57:44;;;;;;;3.67;2.40;;;;;;;;;;5073964;28;20021;-71
2023/01/19 09:00:10;;;;;;;3.33;2.03;;;;;;;;;;5073975;28;20497;-72
2023/01/19 09:02:36;;;;;;;4.40;2.10;;;;;;;;;;5074117;28;20052;-72
2023/01/19 09:05:05;;;;;;;2.60;1.70;;;;;;;;;;5073843;28;20385;-72
2023/01/19 09:07:32;;;;;;;4.43;1.50;;;;;;;;;;5073932;28;20086;-72
2023/01/19 09:09:58;;;;;;;5.60;2.70;;;;;;;;;;5073830;28;20363;-72
2023/01/19 09:12:24;;;;;;;4.97;3.43;;;;;;;;;;5073701;28;20100;-72
2023/01/19 09:14:50;;;;;;;3.13;2.07;;;;;;;;;;5055733;28;20021;-72
2023/01/19 09:17:16;;;;;;;2.17;1.10;;;;;;;;;;5073907;28;20381;-72
2023/01/19 09:19:43;;;;;;;2.67;1.20;;;;;;;;;;5073584;28;20076;-72
2023/01/19 09:22:09;;;;;;;3.70;2.50;;;;;;;;;;5073794;28;20410;-72
2023/01/19 09:24:35;;;;;;;3.23;2.20;;;;;;;;;;5073555;28;20085;-72
2023/01/19 09:27:01;;;;;;;2.33;1.50;;;;;;;;;;5073474;28;20052;-72
2023/01/19 09:29:27;;;;;;;1.63;1.03;;;;;;;;;;5073113;28;20052;-72
2023/01/19 09:31:54;;;;;;;1.60;1.10;;;;;;;;;;5073357;28;20035;-72
2023/01/19 09:34:21;;;;;;;1.37;0.90;;;;;;;;;;5073368;28;20059;-72
2023/01/19 09:36:48;;;;;;;2.50;1.50;;;;;;;;;;5073366;28;20024;-72
2023/01/19 09:39:14;;;;;;;3.17;1.87;;;;;;;;;;5073198;28;20472;-72
2023/01/19 09:41:44;;;;;;;2.80;1.80;;;;;;;;;;5073375;28;20028;-72
2023/01/19 09:44:16;;;;;;;2.23;1.30;;;;;;;;;;5073391;28;20119;-71
2023/01/19 09:46:42;;;;;;;2.78;1.10;;;;;;;;;;5073373;28;20417;-72
2023/01/19 09:49:26;;;;;;;2.87;1.73;;;;;;;;;;5073589;28;20413;-72
2023/01/19 09:51:52;;;;;;;5.20;1.97;;;;;;;;;;5074001;28;20031;-71
2023/01/19 09:54:20;;;;;;;4.13;1.73;;;;;;;;;;5073675;28;20028;-71
2023/01/19 09:56:47;;;;;;;3.23;1.97;;;;;;;;;;5073968;28;20021;-70
2023/01/19 09:59:13;;;;;;;3.43;1.83;;;;;;;;;;5073421;28;20067;-70
2023/01/19 10:01:52;;;;;;;3.20;1.77;;;;;;;;;;5073795;28;20028;-70
2023/01/19 10:04:18;;;;;;;1.57;1.07;;;;;;;;;;5073861;28;20426;-71
2023/01/19 10:06:44;;;;;;;1.10;0.87;;;;;;;;;;5055762;28;20059;-70
2023/01/19 10:09:14;;;;;;;1.60;0.90;;;;;;;;;;5073516;28;20085;-71
2023/01/19 10:11:44;;;;;;;5.50;1.33;;;;;;;;;;5073397;28;20028;-71
2023/01/19 10:14:20;;;;;;;3.17;1.50;;;;;;;;;;5055554;28;20024;-70
2023/01/19 10:17:00;;;;;;;5.13;1.90;;;;;;;;;;5073508;28;20033;-71
2023/01/19 10:19:29;;;;;;;3.70;1.90;;;;;;;;;;5073417;28;20039;-70
2023/01/19 10:21:57;;;;;;;5.90;1.60;;;;;;;;;;5073437;28;20017;-72
2023/01/19 10:24:27;;;;;;;2.97;1.50;;;;;;;;;;5072806;28;20020;-71
2023/01/19 10:26:54;;;;;;;7.30;2.13;;;;;;;;;;5073203;28;20029;-72
2023/01/19 10:29:20;;;;;;;4.83;2.40;;;;;;;;;;5055104;28;20113;-71
2023/01/19 10:31:47;;;;;;;4.47;2.63;;;;;;;;;;5073145;28;20039;-71
2023/01/19 10:34:17;;;;;;;5.40;2.20;;;;;;;;;;5054435;28;20111;-72
2023/01/19 10:36:43;;;;;;;5.20;2.20;;;;;;;;;;5072790;28;20382;-71
2023/01/19 10:39:12;;;;;;;5.33;3.10;;;;;;;;;;5072518;28;20043;-71
2023/01/19 10:41:48;;;;;;;12.00;6.17;;;;;;;;;;5072813;28;20037;-71
2023/01/19 10:44:22;;;;;;;5.83;3.80;;;;;;;;;;5072718;28;20025;-73
2023/01/19 10:46:49;;;;;;;7.67;4.27;;;;;;;;;;5072567;28;20035;-73
2023/01/19 10:49:30;;;;;;;6.77;3.90;;;;;;;;;;5054488;28;20440;-72
2023/01/19 10:51:57;;;;;;;5.03;3.17;;;;;;;;;;5072413;28;20518;-72
2023/01/19 10:54:25;;;;;;;3.67;2.03;;;;;;;;;;5054264;28;20378;-71
2023/01/19 10:56:56;;;;;;;4.03;2.27;;;;;;;;;;5072081;28;20029;-71
2023/01/19 10:59:30;;;;;;;10.77;3.60;;;;;;;;;;5071994;28;20037;-68
2023/01/19 11:02:14;;;;;;;6.43;3.73;;;;;;;;;;5075221;28;20724;-68
2023/01/19 11:04:40;;;;;;;4.10;2.40;;;;;;;;;;5076164;28;20534;-67
2023/01/19 11:07:20;;;;;;;2.90;1.83;;;;;;;;;;5076074;28;20150;-69
2023/01/19 11:09:47;;;;;;;3.47;1.90;;;;;;;;;;5057784;28;20032;-68
2023/01/19 11:12:18;;;;;;;2.63;1.87;;;;;;;;;;5075785;28;20020;-68
2023/01/19 11:14:44;;;;;;;3.20;1.20;;;;;;;;;;5075897;28;20387;-68
2023/01/19 11:17:37;;;;;;;2.10;1.33;;;;;;;;;;5075947;28;20428;-69
2023/01/19 11:20:03;;;;;;;2.63;1.60;;;;;;;;;;5071403;28;20080;-69
2023/01/19 11:22:31;;;;;;;5.37;3.03;;;;;;;;;;5057504;28;20575;-68
2023/01/19 11:24:58;;;;;;;6.47;3.40;;;;;;;;;;5075656;28;20474;-69
2023/01/19 11:27:25;;;;;;;5.70;3.00;;;;;;;;;;5057802;28;20024;-69
2023/01/19 11:29:59;;;;;;;4.73;2.77;;;;;;;;;;5075515;28;20493;-68
2023/01/19 11:32:26;;;;;;;3.87;2.23;;;;;;;;;;5075333;28;20529;-69
2023/01/19 11:34:53;;;;;;;4.33;2.33;;;;;;;;;;5075301;28;20104;-68
2023/01/19 11:37:19;;;;;;;4.27;2.37;;;;;;;;;;5075565;28;20036;-69
2023/01/19 11:39:47;;;;;;;5.43;3.07;;;;;;;;;;5075190;28;20158;-70
2023/01/19 11:42:13;;;;;;;5.30;3.00;;;;;;;;;;5076514;28;20386;-67
2023/01/19 11:44:44;;;;;;;3.30;2.17;;;;;;;;;;5075526;28;20028;-66
2023/01/19 11:47:30;;;;;;;3.27;2.20;;;;;;;;;;5075951;28;20352;-68
2023/01/19 11:50:14;;;;;;;3.23;2.40;;;;;;;;;;5058987;28;20036;-67
2023/01/19 11:52:52;;;;;;;2.70;2.00;;;;;;;;;;5075710;28;20468;-67
2023/01/19 11:55:22;;;;;;;3.80;2.60;;;;;;;;;;5075646;28;20379;-67
2023/01/19 11:57:50;;;;;;;3.47;2.00;;;;;;;;;;5075898;28;20021;-67
2023/01/19 12:00:24;;;;;;;3.90;2.20;;;;;;;;;;5075488;28;20166;-68
2023/01/19 12:02:54;;;;;;;4.00;2.07;;;;;;;;;;5075733;28;20427;-67
2023/01/19 12:05:22;;;;;;;2.50;1.20;;;;;;;;;;5075919;28;20439;-67
2023/01/19 12:07:49;;;;;;;1.50;0.90;;;;;;;;;;5075552;28;20044;-67
2023/01/19 12:10:15;;;;;;;0.93;0.50;;;;;;;;;;5075339;28;20394;-67
2023/01/19 12:12:43;;;;;;;2.43;0.63;;;;;;;;;;5074826;28;20382;-67
2023/01/19 12:15:27;;;;;;;1.53;0.60;;;;;;;;;;5075443;28;20488;-67
2023/01/19 12:17:57;;;;;;;1.23;0.57;;;;;;;;;;5075382;28;20028;-67
2023/01/19 12:20:34;;;;;;;0.80;0.60;;;;;;;;;;5075114;28;20359;-67
2023/01/19 12:23:36;;;;;;;1.00;0.60;;;;;;;;;;5075034;28;20021;-67
2023/01/19 12:26:08;;;;;;;1.20;0.53;;;;;;;;;;4973788;28;20047;-68
2023/01/19 12:28:37;;;;;;;1.67;0.70;;;;;;;;;;5058455;28;20451;-67
2023/01/19 12:31:03;;;;;;;1.00;0.80;;;;;;;;;;5074758;28;20035;-68
2023/01/19 12:33:29;;;;;;;1.03;0.67;;;;;;;;;;5074739;28;20025;-68
2023/01/19 12:35:59;;;;;;;1.77;0.63;;;;;;;;;;5074592;28;20048;-68
2023/01/19 12:38:41;;;;;;;3.43;1.03;;;;;;;;;;5074346;28;20025;-68
2023/01/19 12:41:17;;;;;;;1.63;1.03;;;;;;;;;;5074419;28;20372;-68
2023/01/19 12:43:43;;;;;;;1.93;1.00;;;;;;;;;;5056286;28;20383;-68
2023/01/19 12:46:20;;;;;;;2.03;1.00;;;;;;;;;;5074572;28;20368;-68
2023/01/19 12:48:46;;;;;;;3.17;1.77;;;;;;;;;;5074251;28;20429;-68
2023/01/19 12:51:22;;;;;;;11.97;9.77;;;;;;;;;;5074431;28;20417;-69
2023/01/19 12:53:53;;;;;;;12.57;10.33;;;;;;;;;;5073768;28;20424;-69
2023/01/19 12:56:20;;;;;;;1.80;1.30;;;;;;;;;;5074055;28;20070;-69
2023/01/19 12:58:49;;;;;;;1.20;0.83;;;;;;;;;;5073927;28;20355;-69
2023/01/19 13:01:17;;;;;;;1.30;1.03;;;;;;;;;;5056107;28;20390;-69
2023/01/19 13:03:44;;;;;;;2.50;1.90;;;;;;;;;;5074205;28;20025;-69
2023/01/19 13:06:10;;;;;;;3.70;1.53;;;;;;;;;;5073991;28;20383;-68
2023/01/19 13:08:55;;;;;;;2.47;1.50;;;;;;;;;;5073694;28;20024;-68
2023/01/19 13:11:21;;;;;;;2.40;1.23;;;;;;;;;;5055794;28;20381;-70
2023/01/19 13:13:47;;;;;;;1.40;1.00;;;;;;;;;;5074080;28;20043;-70
2023/01/19 13:16:19;;;;;;;1.80;1.20;;;;;;;;;;5073806;28;20020;-68
2023/01/19 13:18:48;;;;;;;2.17;1.45;;;;;;;;;;5073698;28;20478;-69
2023/01/19 13:21:26;;;;;;;2.30;1.50;;;;;;;;;;5055021;28;20031;-70
2023/01/19 13:23:53;;;;;;;3.40;1.43;;;;;;;;;;5072529;28;20524;-70
2023/01/19 13:26:46;;;;;;;3.23;1.80;;;;;;;;;;5073328;28;20028;-70
2023/01/19 13:29:15;;;;;;;6.18;2.80;;;;;;;;;;5068650;28;20571;-69
2023/01/19 13:31:43;;;;;;;2.87;2.03;;;;;;;;;;5055066;28;20025;-69
2023/01/19 13:34:11;;;;;;;6.30;4.13;;;;;;;;;;5073181;28;20021;-70
2023/01/19 13:36:41;;;;;;;3.17;2.00;;;;;;;;;;5073926;28;20031;-70
2023/01/19 13:39:13;;;;;;;4.90;3.63;;;;;;;;;;5073832;28;20493;-69
2023/01/19 13:41:40;;;;;;;5.00;3.67;;;;;;;;;;5074090;28;20370;-69
2023/01/19 13:44:25;;;;;;;4.80;3.33;;;;;;;;;;5073970;28;20028;-69
2023/01/19 13:46:52;;;;;;;5.40;3.53;;;;;;;;;;5055722;28;20032;-69
2023/01/19 13:49:30;;;;;;;5.83;4.20;;;;;;;;;;5073826;28;20033;-69
2023/01/19 13:52:05;;;;;;;21.63;15.77;;;;;;;;;;5073749;28;20027;-67
2023/01/19 13:54:31;;;;;;;20.90;16.00;;;;;;;;;;5070756;28;20469;-66
2023/01/19 13:56:57;;;;;;;11.47;8.17;;;;;;;;;;5070477;28;20032;-67
2023/01/19 13:59:23;;;;;;;5.87;3.27;;;;;;;;;;5072116;28;20036;-66
2023/01/19 14:01:50;;;;;;;7.13;2.27;;;;;;;;;;5073047;28;20044;-67
2023/01/19 14:04:26;;;;;;;2.37;1.70;;;;;;;;;;5073263;28;20426;-67
2023/01/19 14:06:54;;;;;;;4.20;2.40;;;;;;;;;;5073317;28;20074;-67
2023/01/19 14:09:20;;;;;;;5.97;2.97;;;;;;;;;;5073052;28;20394;-67
2023/01/19 14:12:07;;;;;;;3.90;2.37;;;;;;;;;;5073351;28;20377;-65
2023/01/19 14:14:33;;;;;;;3.57;2.17;;;;;;;;;;5072710;28;20028;-65
2023/01/19 14:16:59;;;;;;;5.27;2.13;;;;;;;;;;5054804;28;20055;-66
2023/01/19 14:19:25;;;;;;;3.53;2.20;;;;;;;;;;5073191;28;20421;-65
2023/01/19 14:22:02;;;;;;;3.07;2.20;;;;;;;;;;5073042;28;20025;-66
2023/01/19 14:24:30;;;;;;;2.77;1.83;;;;;;;;;;5073022;28;20108;-66
2023/01/19 14:27:17;;;;;;;2.53;1.70;;;;;;;;;;5073061;28;20375;-66
2023/01/19 14:29:46;;;;;;;3.73;2.60;;;;;;;;;;5070305;28;20041;-69
2023/01/19 14:32:18;;;;;;;3.13;2.40;;;;;;;;;;5070016;28;20035;-67
2023/01/19 14:34:46;;;;;;;3.53;2.88;;;;;;;;;;5073502;28;20029;-70
2023/01/19 14:37:21;;;;;;;19.33;13.27;;;;;;;;;;5076973;28;20055;-67
2023/01/19 14:39:56;;;;;;;13.87;11.37;;;;;;;;;;5058699;28;20402;-69
2023/01/19 14:42:27;;;;;;;11.47;9.30;;;;;;;;;;5076264;28;20421;-68
2023/01/19 14:44:54;;;;;;;7.60;4.30;;;;;;;;;;5076363;28;20035;-67
2023/01/19 14:47:35;;;;;;;7.17;3.77;;;;;;;;;;5076282;28;20323;-68
2023/01/19 14:50:24;;;;;;;5.13;3.00;;;;;;;;;;5076164;28;20120;-67
2023/01/19 14:52:59;;;;;;;4.83;3.30;;;;;;;;;;5063593;28;20127;-67
2023/01/19 14:55:27;;;;;;;5.03;3.07;;;;;;;;;;5058706;28;20414;-67
2023/01/19 14:57:54;;;;;;;8.40;3.40;;;;;;;;;;5076250;28;20359;-67
2023/01/19 15:00:20;;;;;;;5.27;3.27;;;;;;;;;;5075638;28;20051;-66
2023/01/19 15:02:46;;;;;;;8.27;4.10;;;;;;;;;;5076334;28;20496;-69
2023/01/19 15:05:12;;;;;;;6.03;3.73;;;;;;;;;;5076140;28;20052;-66
2023/01/19 15:07:40;;;;;;;7.13;4.17;;;;;;;;;;5075510;28;20024;-68
2023/01/19 15:10:11;;;;;;;6.13;3.80;;;;;;;;;;5075501;28;20060;-68
2023/01/19 15:12:37;;;;;;;4.83;3.10;;;;;;;;;;5075803;28;20029;-67